Time;durP1;ratioP1;P1;durP2;ratioP2;P2;SDS_P1;SDS_P2;PMS_P1;PMS_P2;Temp;Humidity;BMP_temperature;BMP_pressure;BME280_temperature;BME280_humidity;BME280_pressure;Samples;Min_cycle;Max_cycle;Signal;HPM_P1;HPM_P2
2023/05/04 00:00:26;;;;;;;9.30;6.73;;;13.90;88.20;;;;;;5133532;27;20582;-76
2023/05/04 00:02:54;;;;;;;11.60;6.50;;;13.80;88.40;;;;;;5115260;27;20172;-76
2023/05/04 00:05:20;;;;;;;11.43;6.57;;;13.70;89.20;;;;;;5115538;27;20201;-76
2023/05/04 00:07:48;;;;;;;9.93;6.63;;;13.70;90.20;;;;;;5115641;28;20208;-75
2023/05/04 00:10:13;;;;;;;9.83;6.57;;;13.60;90.20;;;;;;5110942;28;20193;-76
2023/05/04 00:12:39;;;;;;;12.17;6.90;;;13.60;90.60;;;;;;5094644;28;20188;-76
2023/05/04 00:15:07;;;;;;;10.60;6.67;;;13.50;90.40;;;;;;5124036;28;20177;-76
2023/05/04 00:17:32;;;;;;;8.53;5.97;;;13.60;90.60;;;;;;5115208;28;20192;-76
2023/05/04 00:19:58;;;;;;;11.47;6.37;;;13.40;90.70;;;;;;5115139;28;20213;-77
2023/05/04 00:22:23;;;;;;;10.10;7.00;;;13.50;90.80;;;;;;5115826;28;20326;-75
2023/05/04 00:24:49;;;;;;;10.40;7.10;;;13.40;91.30;;;;;;5115419;28;20213;-75
2023/05/04 00:27:15;;;;;;;10.33;6.53;;;13.40;91.30;;;;;;5115902;28;20204;-75
2023/05/04 00:29:42;;;;;;;10.97;6.67;;;13.40;91.40;;;;;;5114594;28;20177;-76
2023/05/04 00:32:09;;;;;;;9.83;6.40;;;13.30;91.80;;;;;;5115233;28;20657;-76
2023/05/04 00:34:35;;;;;;;8.80;6.70;;;13.20;92.00;;;;;;5134338;28;20161;-76
2023/05/04 00:37:01;;;;;;;7.87;6.20;;;13.30;92.30;;;;;;5134059;28;20225;-76
2023/05/04 00:39:26;;;;;;;10.60;6.80;;;13.30;92.10;;;;;;5115591;28;20250;-76
2023/05/04 00:41:54;;;;;;;10.27;7.00;;;13.20;92.50;;;;;;5115863;28;20177;-76
2023/05/04 00:44:22;;;;;;;12.17;6.63;;;13.20;92.70;;;;;;5115437;28;20174;-76
2023/05/04 00:46:49;;;;;;;8.93;6.33;;;13.20;92.70;;;;;;5114599;28;20178;-76
2023/05/04 00:49:15;;;;;;;10.37;6.50;;;13.10;92.80;;;;;;5115277;28;20306;-77
2023/05/04 00:51:40;;;;;;;10.63;6.57;;;13.10;93.30;;;;;;5133177;28;20617;-76
2023/05/04 00:54:06;;;;;;;12.37;7.00;;;13.00;93.60;;;;;;5115071;28;20185;-78
2023/05/04 00:56:32;;;;;;;9.77;6.53;;;12.90;94.20;;;;;;5136243;27;20200;-77
2023/05/04 00:58:58;;;;;;;11.50;7.10;;;12.90;94.80;;;;;;5137387;27;20198;-78
2023/05/04 01:01:24;;;;;;;14.47;7.53;;;12.90;95.00;;;;;;5118508;27;20599;-78
2023/05/04 01:03:52;;;;;;;10.83;7.00;;;12.90;95.30;;;;;;5119181;27;20263;-78
2023/05/04 01:06:37;;;;;;;13.20;7.60;;;12.80;95.80;;;;;;5119115;27;20214;-77
2023/05/04 01:09:16;;;;;;;12.60;7.33;;;12.90;96.10;;;;;;5118034;27;20196;-77
2023/05/04 01:12:15;;;;;;;11.43;7.23;;;12.90;96.70;;;;;;5136907;27;20544;-77
2023/05/04 01:14:42;;;;;;;8.77;6.60;;;12.80;97.10;;;;;;5137068;27;20182;-78
2023/05/04 01:17:10;;;;;;;9.43;6.87;;;12.70;97.70;;;;;;5136845;27;20201;-77
2023/05/04 01:19:42;;;;;;;10.20;6.77;;;12.80;98.20;;;;;;5136288;27;20180;-77
2023/05/04 01:22:08;;;;;;;10.53;7.07;;;12.60;98.80;;;;;;5136771;27;20667;-77
2023/05/04 01:24:34;;;;;;;10.23;6.90;;;12.50;99.20;;;;;;5118473;27;20664;-77
2023/05/04 01:27:17;;;;;;;10.30;6.87;;;12.50;99.60;;;;;;5118910;27;20172;-77
2023/05/04 01:30:05;;;;;;;15.03;7.47;;;12.50;99.90;;;;;;5136885;27;20170;-76
2023/05/04 01:32:31;;;;;;;12.90;7.17;;;12.40;99.90;;;;;;5118831;27;20264;-77
2023/05/04 01:34:58;;;;;;;11.87;7.07;;;12.40;99.90;;;;;;5118277;27;20519;-76
2023/05/04 01:37:24;;;;;;;13.30;7.03;;;12.30;99.90;;;;;;5118594;27;20634;-76
2023/05/04 01:39:50;;;;;;;14.87;7.47;;;12.20;99.90;;;;;;5117932;27;20208;-76
2023/05/04 01:42:16;;;;;;;12.23;6.70;;;12.10;99.90;;;;;;5117997;27;20518;-76
2023/05/04 01:44:42;;;;;;;10.50;7.40;;;12.00;99.90;;;;;;5136357;27;20169;-76
2023/05/04 01:47:07;;;;;;;14.83;7.20;;;12.00;99.90;;;;;;5134791;27;20174;-77
2023/05/04 01:49:34;;;;;;;11.17;7.33;;;12.10;99.90;;;;;;5136078;27;20161;-76
2023/05/04 01:52:00;;;;;;;13.10;7.33;;;12.10;99.90;;;;;;5136787;27;20173;-77
2023/05/04 01:54:25;;;;;;;11.60;7.10;;;12.20;99.90;;;;;;5136726;27;20184;-79
2023/05/04 01:56:51;;;;;;;11.77;7.27;;;12.20;99.90;;;;;;5116987;27;20633;-78
2023/05/04 01:59:17;;;;;;;11.07;6.67;;;12.10;99.90;;;;;;5117540;27;20236;-77
2023/05/04 02:01:42;;;;;;;12.33;7.23;;;12.10;99.90;;;;;;5116306;27;20214;-77
2023/05/04 02:04:08;;;;;;;13.03;7.33;;;12.20;99.90;;;;;;5097105;28;20192;-77
2023/05/04 02:06:34;;;;;;;9.43;7.00;;;12.10;99.90;;;;;;5115511;28;20198;-77
2023/05/04 02:09:00;;;;;;;13.03;6.77;;;12.10;99.90;;;;;;5097107;28;20246;-77
2023/05/04 02:11:25;;;;;;;11.30;6.90;;;12.00;99.90;;;;;;5115357;28;20199;-77
2023/05/04 02:13:51;;;;;;;9.90;6.73;;;12.00;99.90;;;;;;5115328;28;20358;-77
2023/05/04 02:16:17;;;;;;;11.47;7.30;;;12.00;99.90;;;;;;5097232;28;20568;-77
2023/05/04 02:18:42;;;;;;;14.17;8.00;;;12.00;99.90;;;;;;5096893;28;20181;-77
2023/05/04 02:21:08;;;;;;;11.03;7.13;;;11.90;99.90;;;;;;5096968;28;20224;-77
2023/05/04 02:23:33;;;;;;;13.07;7.27;;;11.90;99.90;;;;;;5096555;28;20208;-77
2023/05/04 02:25:59;;;;;;;12.93;7.73;;;12.00;99.90;;;;;;5114812;28;20188;-77
2023/05/04 02:28:25;;;;;;;10.53;7.67;;;12.00;99.90;;;;;;5096488;28;20168;-76
2023/05/04 02:30:50;;;;;;;12.50;7.40;;;12.00;99.90;;;;;;5096750;28;20178;-78
2023/05/04 02:33:17;;;;;;;10.47;7.53;;;11.90;99.90;;;;;;5096083;28;20640;-77
2023/05/04 02:35:43;;;;;;;12.03;7.23;;;11.90;99.90;;;;;;5115299;28;20181;-79
2023/05/04 02:38:08;;;;;;;15.00;7.33;;;11.90;99.90;;;;;;5115185;28;20171;-78
2023/05/04 02:40:34;;;;;;;11.87;7.53;;;11.80;99.90;;;;;;5114734;28;20554;-78
2023/05/04 02:42:59;;;;;;;13.50;7.20;;;11.80;99.90;;;;;;5101035;27;20541;-77
2023/05/04 02:45:25;;;;;;;11.77;7.40;;;11.80;99.90;;;;;;5135726;27;20252;-77
2023/05/04 02:47:51;;;;;;;12.97;7.63;;;11.80;99.90;;;;;;5135885;27;20168;-77
2023/05/04 02:50:16;;;;;;;11.03;7.37;;;11.70;99.90;;;;;;5117910;27;20186;-76
2023/05/04 02:52:42;;;;;;;11.20;7.33;;;11.80;99.90;;;;;;5135311;27;20592;-76
2023/05/04 02:55:08;;;;;;;13.03;7.23;;;11.80;99.90;;;;;;5117172;27;20184;-75
2023/05/04 02:57:34;;;;;;;10.47;7.30;;;11.70;99.90;;;;;;5114266;27;20652;-75
2023/05/04 02:59:59;;;;;;;12.13;6.93;;;11.80;99.90;;;;;;5117176;27;20200;-76
2023/05/04 03:02:25;;;;;;;12.53;7.33;;;11.80;99.90;;;;;;5117166;27;20182;-76
2023/05/04 03:04:51;;;;;;;10.07;6.90;;;11.60;99.90;;;;;;5134739;27;20156;-76
2023/05/04 03:07:19;;;;;;;12.03;7.43;;;11.70;99.90;;;;;;5105256;28;20181;-76
2023/05/04 03:09:44;;;;;;;16.37;8.03;;;11.70;99.90;;;;;;5095632;28;20194;-76
2023/05/04 03:12:10;;;;;;;10.33;7.23;;;11.70;99.90;;;;;;5095709;28;20231;-75
2023/05/04 03:14:36;;;;;;;16.40;8.40;;;11.60;99.90;;;;;;5095839;28;20173;-76
2023/05/04 03:17:01;;;;;;;13.30;7.77;;;11.50;99.90;;;;;;5095800;28;20261;-76
2023/05/04 03:19:27;;;;;;;10.23;7.37;;;11.50;99.90;;;;;;5094979;28;20208;-75
2023/05/04 03:21:54;;;;;;;11.13;8.03;;;11.40;99.90;;;;;;5096107;28;20205;-75
2023/05/04 03:24:20;;;;;;;12.13;7.07;;;11.40;99.90;;;;;;5095272;28;20232;-75
2023/05/04 03:26:46;;;;;;;13.07;7.87;;;11.30;99.90;;;;;;5113749;28;20168;-77
2023/05/04 03:29:13;;;;;;;16.20;8.37;;;11.20;99.90;;;;;;5095482;28;20236;-77
2023/05/04 03:31:39;;;;;;;13.13;8.30;;;11.20;99.90;;;;;;5095907;28;20232;-74
2023/05/04 03:34:05;;;;;;;11.33;7.47;;;11.30;99.90;;;;;;5113599;28;20590;-74
2023/05/04 03:36:31;;;;;;;13.87;9.23;;;11.40;99.90;;;;;;5095725;28;20181;-75
2023/05/04 03:38:56;;;;;;;12.90;7.70;;;11.50;99.90;;;;;;5113205;28;20166;-75
2023/05/04 03:41:22;;;;;;;15.43;8.67;;;11.30;99.90;;;;;;5113576;28;20207;-75
2023/05/04 03:43:48;;;;;;;13.77;7.90;;;11.30;99.90;;;;;;5095128;28;20173;-77
2023/05/04 03:46:13;;;;;;;13.90;8.53;;;11.20;99.90;;;;;;5113283;28;20212;-76
2023/05/04 03:48:40;;;;;;;12.67;7.83;;;11.10;99.90;;;;;;5095068;28;20183;-76
2023/05/04 03:51:06;;;;;;;10.40;7.60;;;11.20;99.90;;;;;;5113518;28;20203;-76
2023/05/04 03:53:34;;;;;;;17.27;8.77;;;11.10;99.90;;;;;;5094841;28;20172;-77
2023/05/04 03:56:01;;;;;;;9.57;7.70;;;11.10;99.90;;;;;;5094692;28;20662;-75
2023/05/04 03:58:27;;;;;;;12.83;9.10;;;11.00;99.90;;;;;;5095299;28;20551;-75
2023/05/04 04:00:52;;;;;;;13.80;8.50;;;10.90;99.90;;;;;;5095501;28;20226;-75
2023/05/04 04:03:18;;;;;;;15.40;8.17;;;11.00;99.90;;;;;;5095941;28;20176;-76
2023/05/04 04:05:44;;;;;;;15.23;8.30;;;11.00;99.90;;;;;;5095868;28;20259;-75
2023/05/04 04:08:09;;;;;;;14.67;8.60;;;10.90;99.90;;;;;;5095690;28;20173;-76
2023/05/04 04:10:36;;;;;;;13.23;8.10;;;10.90;99.90;;;;;;5095699;28;20691;-76
2023/05/04 04:13:02;;;;;;;11.53;8.17;;;10.80;99.90;;;;;;5095595;28;20223;-76
2023/05/04 04:15:28;;;;;;;16.27;8.50;;;10.80;99.90;;;;;;5095645;28;20192;-76
2023/05/04 04:17:54;;;;;;;15.10;7.90;;;10.80;99.90;;;;;;5113939;28;20174;-76
2023/05/04 04:20:20;;;;;;;16.33;9.03;;;10.80;99.90;;;;;;5094560;28;20207;-75
2023/05/04 04:22:46;;;;;;;13.90;8.60;;;11.00;99.90;;;;;;5094382;28;20631;-75
2023/05/04 04:25:12;;;;;;;13.57;8.90;;;10.90;99.90;;;;;;5094785;28;20229;-77
2023/05/04 04:27:38;;;;;;;15.03;8.30;;;11.00;99.90;;;;;;5113003;28;20509;-77
2023/05/04 04:30:04;;;;;;;16.67;8.27;;;10.90;99.90;;;;;;5112970;28;20252;-78
2023/05/04 04:32:30;;;;;;;12.53;8.83;;;10.70;99.90;;;;;;5099637;28;20185;-76
2023/05/04 04:34:55;;;;;;;10.20;8.07;;;10.80;99.90;;;;;;5110598;27;20184;-77
2023/05/04 04:37:21;;;;;;;13.57;8.53;;;10.80;99.90;;;;;;5119380;27;20182;-77
2023/05/04 04:39:47;;;;;;;12.07;7.73;;;10.90;99.90;;;;;;5119205;27;20184;-77
2023/05/04 04:42:12;;;;;;;16.43;8.73;;;10.80;99.90;;;;;;5118829;27;20200;-76
2023/05/04 04:44:38;;;;;;;14.93;8.30;;;10.70;99.90;;;;;;5117846;27;20174;-77
2023/05/04 04:47:05;;;;;;;13.73;8.60;;;10.80;99.90;;;;;;5137351;27;20179;-77
2023/05/04 04:49:31;;;;;;;15.17;8.83;;;10.80;99.90;;;;;;5118936;27;20515;-77
2023/05/04 04:51:56;;;;;;;12.40;8.20;;;10.90;99.90;;;;;;5136263;27;20200;-78
2023/05/04 04:54:22;;;;;;;15.53;8.60;;;10.90;99.90;;;;;;5137375;27;20177;-77
2023/05/04 04:56:48;;;;;;;12.27;8.47;;;10.90;99.90;;;;;;5137114;27;20174;-77
2023/05/04 04:59:13;;;;;;;16.13;8.57;;;10.90;99.90;;;;;;5137223;27;20174;-76
2023/05/04 05:01:40;;;;;;;14.97;8.80;;;10.90;99.90;;;;;;5131750;27;20212;-76
2023/05/04 05:04:06;;;;;;;16.63;9.03;;;11.00;99.90;;;;;;5119063;27;20177;-77
2023/05/04 05:06:32;;;;;;;17.07;9.10;;;11.00;99.90;;;;;;5136956;27;20183;-77
2023/05/04 05:08:58;;;;;;;13.53;8.40;;;11.00;99.90;;;;;;5118469;27;20195;-77
2023/05/04 05:11:24;;;;;;;16.10;9.30;;;11.10;99.90;;;;;;5115313;27;20633;-76
2023/05/04 05:13:50;;;;;;;14.13;9.07;;;11.10;99.90;;;;;;5117476;27;20191;-76
2023/05/04 05:16:16;;;;;;;19.27;9.47;;;11.10;99.90;;;;;;5136855;27;20219;-78
2023/05/04 05:18:44;;;;;;;18.13;8.90;;;11.20;99.90;;;;;;5118462;27;20505;-77
2023/05/04 05:21:10;;;;;;;12.23;8.63;;;11.20;99.90;;;;;;5111549;27;20608;-76
2023/05/04 05:23:37;;;;;;;12.47;8.57;;;11.20;99.90;;;;;;5136553;27;20224;-77
2023/05/04 05:26:03;;;;;;;12.57;8.60;;;11.20;99.90;;;;;;5115449;27;20595;-78
2023/05/04 05:28:29;;;;;;;13.53;8.13;;;11.10;99.90;;;;;;5116014;28;20169;-77
2023/05/04 05:30:56;;;;;;;13.93;9.17;;;11.20;99.90;;;;;;5098201;28;20180;-78
2023/05/04 05:33:22;;;;;;;23.10;9.00;;;11.30;99.90;;;;;;5115759;28;20313;-78
2023/05/04 05:35:48;;;;;;;15.37;8.53;;;11.30;99.90;;;;;;5097937;28;20223;-77
2023/05/04 05:38:15;;;;;;;16.93;8.23;;;11.30;99.90;;;;;;5097392;28;20181;-77
2023/05/04 05:40:42;;;;;;;13.83;8.67;;;11.30;99.90;;;;;;5136111;27;20200;-77
2023/05/04 05:43:09;;;;;;;14.37;8.83;;;11.20;99.90;;;;;;5135643;27;20159;-77
2023/05/04 05:45:35;;;;;;;14.27;8.53;;;11.30;99.90;;;;;;5137161;27;20157;-77
2023/05/04 05:48:01;;;;;;;19.17;9.33;;;11.40;99.90;;;;;;5136194;27;20179;-77
2023/05/04 05:50:26;;;;;;;11.80;8.10;;;11.40;99.90;;;;;;5136049;27;20187;-77
2023/05/04 05:52:53;;;;;;;14.83;9.00;;;11.40;99.90;;;;;;5118522;27;20178;-77
2023/05/04 05:55:19;;;;;;;15.20;8.30;;;11.50;99.90;;;;;;5136226;27;20184;-77
2023/05/04 05:57:45;;;;;;;17.50;8.60;;;11.50;99.90;;;;;;5117892;27;20178;-77
2023/05/04 06:00:12;;;;;;;14.33;8.30;;;11.70;99.90;;;;;;5136249;27;20249;-77
2023/05/04 06:02:38;;;;;;;15.77;8.53;;;11.70;99.90;;;;;;5117947;27;20180;-77
2023/05/04 06:05:04;;;;;;;17.07;8.23;;;11.90;99.90;;;;;;5118187;27;20177;-77
2023/05/04 06:07:30;;;;;;;15.20;8.40;;;12.00;99.90;;;;;;5118902;27;20340;-76
2023/05/04 06:09:56;;;;;;;18.40;8.17;;;12.00;99.90;;;;;;5136547;27;20348;-77
2023/05/04 06:12:24;;;;;;;14.80;8.23;;;12.10;99.90;;;;;;5124793;27;20172;-75
2023/05/04 06:14:49;;;;;;;14.50;8.27;;;12.30;99.90;;;;;;5137752;27;20179;-77
2023/05/04 06:17:16;;;;;;;15.13;8.80;;;12.50;99.90;;;;;;5117475;27;20179;-76
2023/05/04 06:19:41;;;;;;;18.37;8.33;;;12.60;99.90;;;;;;5117557;27;20180;-76
2023/05/04 06:22:08;;;;;;;18.37;8.60;;;12.70;99.90;;;;;;5135950;27;20164;-77
2023/05/04 06:24:34;;;;;;;17.60;8.50;;;12.80;99.90;;;;;;5118300;27;20260;-77
2023/05/04 06:27:00;;;;;;;14.07;8.20;;;12.90;99.90;;;;;;5136157;27;20263;-76
2023/05/04 06:29:27;;;;;;;14.93;8.37;;;13.10;99.90;;;;;;5118131;27;20638;-76
2023/05/04 06:31:53;;;;;;;16.50;8.10;;;13.30;99.90;;;;;;5119514;27;20169;-77
2023/05/04 06:34:20;;;;;;;15.37;8.23;;;13.50;99.90;;;;;;5119557;27;20679;-77
2023/05/04 06:36:50;;;;;;;18.67;8.50;;;13.60;99.90;;;;;;5119348;27;20285;-77
2023/05/04 06:39:15;;;;;;;11.97;7.93;;;13.70;99.90;;;;;;5136054;27;20230;-76
2023/05/04 06:41:41;;;;;;;14.93;8.40;;;13.80;99.90;;;;;;5135788;27;20184;-76
2023/05/04 06:44:07;;;;;;;16.03;8.53;;;13.80;99.90;;;;;;5117023;27;20226;-77
2023/05/04 06:46:34;;;;;;;13.13;8.17;;;13.80;99.90;;;;;;5116843;27;20169;-77
2023/05/04 06:49:02;;;;;;;13.13;8.10;;;13.90;99.90;;;;;;5135984;27;20176;-77
2023/05/04 06:51:30;;;;;;;18.20;8.70;;;13.90;99.90;;;;;;5135331;27;20567;-77
2023/05/04 06:53:58;;;;;;;18.70;8.30;;;13.90;99.90;;;;;;5115826;27;20177;-77
2023/05/04 06:56:24;;;;;;;17.03;8.93;;;14.10;99.90;;;;;;5117308;27;20380;-76
2023/05/04 06:58:50;;;;;;;12.77;8.07;;;14.10;99.90;;;;;;5117615;27;20302;-76
2023/05/04 07:01:16;;;;;;;17.53;7.80;;;14.10;99.90;;;;;;5116668;27;20196;-77
2023/05/04 07:03:42;;;;;;;16.87;8.13;;;14.20;99.90;;;;;;5135578;27;20179;-76
2023/05/04 07:06:08;;;;;;;12.37;7.87;;;14.20;99.90;;;;;;5116614;27;20177;-76
2023/05/04 07:08:34;;;;;;;11.67;8.47;;;14.30;99.90;;;;;;5116225;27;20200;-77
2023/05/04 07:11:00;;;;;;;21.53;8.40;;;14.30;99.90;;;;;;5135155;27;20547;-76
2023/05/04 07:13:26;;;;;;;17.73;8.10;;;14.40;99.90;;;;;;5135212;27;20695;-77
2023/05/04 07:15:51;;;;;;;15.80;8.30;;;14.40;99.90;;;;;;5134783;27;20165;-77
2023/05/04 07:18:17;;;;;;;12.37;7.20;;;14.70;99.90;;;;;;5116480;27;20219;-77
2023/05/04 07:20:44;;;;;;;13.23;6.97;;;14.70;99.90;;;;;;5116598;27;20357;-77
2023/05/04 07:23:10;;;;;;;9.50;6.67;;;14.90;99.90;;;;;;5116653;27;20169;-77
2023/05/04 07:25:35;;;;;;;8.77;6.63;;;15.00;99.90;;;;;;5116619;27;20335;-77
2023/05/04 07:28:01;;;;;;;12.90;6.77;;;15.10;99.90;;;;;;5134800;27;20618;-77
2023/05/04 07:30:28;;;;;;;12.10;6.77;;;15.20;99.90;;;;;;5135837;27;20508;-77
2023/05/04 07:32:55;;;;;;;15.80;10.73;;;15.20;99.90;;;;;;5134651;27;20548;-76
2023/05/04 07:35:21;;;;;;;9.23;6.07;;;15.40;99.90;;;;;;5115884;27;20271;-77
2023/05/04 07:37:48;;;;;;;12.00;6.53;;;15.40;99.90;;;;;;5115968;27;20208;-77
2023/05/04 07:40:15;;;;;;;10.27;6.97;;;15.50;99.90;;;;;;5116500;27;20541;-75
2023/05/04 07:42:41;;;;;;;10.33;6.17;;;15.50;99.90;;;;;;5135661;27;20538;-77
2023/05/04 07:45:08;;;;;;;10.50;6.03;;;15.50;99.90;;;;;;5117650;27;20169;-77
2023/05/04 07:47:34;;;;;;;10.37;6.37;;;15.60;99.90;;;;;;5117258;27;20168;-77
2023/05/04 07:50:00;;;;;;;16.97;6.60;;;15.90;99.90;;;;;;5134931;27;20166;-77
2023/05/04 07:52:26;;;;;;;10.60;6.37;;;15.90;99.90;;;;;;5135767;27;20679;-77
2023/05/04 07:54:53;;;;;;;10.43;5.93;;;15.90;99.90;;;;;;5119107;27;20213;-75
2023/05/04 07:57:20;;;;;;;15.27;6.03;;;16.00;99.90;;;;;;5117064;27;20217;-76
2023/05/04 07:59:47;;;;;;;8.77;6.03;;;16.10;99.90;;;;;;5116052;27;20302;-76
2023/05/04 08:02:12;;;;;;;9.37;5.63;;;16.20;99.90;;;;;;5134237;27;20644;-77
2023/05/04 08:04:38;;;;;;;10.60;5.27;;;16.40;99.90;;;;;;5133921;27;20169;-76
2023/05/04 08:07:04;;;;;;;12.50;5.27;;;16.50;99.90;;;;;;5134360;27;20239;-78
2023/05/04 08:09:29;;;;;;;9.37;4.87;;;16.80;99.60;;;;;;5134700;27;20218;-77
2023/05/04 08:11:56;;;;;;;7.60;4.53;;;16.90;99.40;;;;;;5134185;28;20257;-77
2023/05/04 08:14:22;;;;;;;11.60;5.10;;;16.90;98.20;;;;;;5116101;28;20281;-76
2023/05/04 08:16:49;;;;;;;11.20;5.00;;;17.10;98.00;;;;;;5136371;28;20184;-76
2023/05/04 08:19:15;;;;;;;9.50;4.87;;;17.30;97.30;;;;;;5134426;28;20172;-77
2023/05/04 08:21:41;;;;;;;7.30;4.27;;;17.30;97.50;;;;;;5115552;28;20200;-77
2023/05/04 08:24:06;;;;;;;10.43;4.90;;;17.40;97.00;;;;;;5135079;28;20184;-77
2023/05/04 08:26:35;;;;;;;7.03;4.50;;;17.60;96.70;;;;;;5134605;28;20158;-77
2023/05/04 08:29:09;;;;;;;6.17;4.70;;;17.70;96.50;;;;;;5133823;28;20173;-77
2023/05/04 08:31:35;;;;;;;7.57;4.30;;;17.80;96.10;;;;;;5115556;28;20215;-77
2023/05/04 08:34:01;;;;;;;8.70;4.83;;;17.90;96.30;;;;;;5134156;28;20172;-77
2023/05/04 08:36:27;;;;;;;10.43;4.63;;;18.10;95.60;;;;;;5115234;28;20278;-77
2023/05/04 08:38:52;;;;;;;7.97;4.87;;;18.20;96.10;;;;;;5115816;28;20215;-77
2023/05/04 08:41:18;;;;;;;5.93;4.37;;;18.40;95.20;;;;;;5133881;28;20245;-78
2023/05/04 08:43:45;;;;;;;11.27;5.13;;;18.50;95.30;;;;;;5133732;28;20533;-77
2023/05/04 08:46:13;;;;;;;6.37;4.17;;;18.50;95.10;;;;;;5133855;28;20578;-77
2023/05/04 08:48:38;;;;;;;9.73;5.07;;;18.80;94.80;;;;;;5133929;28;20643;-77
2023/05/04 08:51:05;;;;;;;9.10;4.80;;;18.80;94.90;;;;;;5115441;28;20176;-77
2023/05/04 08:53:35;;;;;;;9.67;4.80;;;18.80;94.80;;;;;;5115303;28;20177;-77
2023/05/04 08:56:03;;;;;;;7.33;4.40;;;18.70;94.60;;;;;;5134199;28;20176;-77
2023/05/04 08:58:30;;;;;;;6.63;4.63;;;18.80;94.70;;;;;;5115089;28;20271;-77
2023/05/04 09:00:58;;;;;;;6.67;5.10;;;18.80;94.90;;;;;;5115150;28;20217;-77
2023/05/04 09:03:24;;;;;;;5.87;4.23;;;18.80;94.40;;;;;;5133657;28;20173;-76
2023/05/04 09:05:51;;;;;;;8.37;3.97;;;18.50;95.60;;;;;;5114903;28;20169;-76
2023/05/04 09:08:19;;;;;;;8.87;5.03;;;18.70;95.10;;;;;;5115023;28;20197;-78
2023/05/04 09:10:45;;;;;;;10.93;4.63;;;18.70;95.40;;;;;;5133162;28;20630;-77
2023/05/04 09:13:11;;;;;;;5.60;4.80;;;18.80;95.00;;;;;;5115057;28;20301;-77
2023/05/04 09:15:36;;;;;;;6.63;4.87;;;18.90;95.60;;;;;;5133465;27;20214;-78
2023/05/04 09:18:05;;;;;;;6.13;4.53;;;19.00;95.10;;;;;;5136930;27;20177;-77
2023/05/04 09:20:46;;;;;;;5.67;4.20;;;18.90;95.60;;;;;;5119163;27;20307;-76
2023/05/04 09:23:13;;;;;;;8.57;4.97;;;19.00;94.90;;;;;;5118928;27;20522;-77
2023/05/04 09:25:49;;;;;;;6.77;3.93;;;19.20;94.60;;;;;;5119377;27;20241;-77
2023/05/04 09:28:17;;;;;;;8.80;4.37;;;19.20;94.10;;;;;;5118946;27;20222;-77
2023/05/04 09:30:44;;;;;;;7.93;4.33;;;19.30;93.90;;;;;;5118857;27;20189;-78
2023/05/04 09:33:12;;;;;;;7.23;4.97;;;19.40;93.80;;;;;;5118925;27;20550;-76
2023/05/04 09:35:43;;;;;;;5.60;4.20;;;19.60;93.60;;;;;;5118720;27;20177;-77
2023/05/04 09:38:09;;;;;;;8.77;4.13;;;19.70;93.70;;;;;;5118541;27;20177;-77
2023/05/04 09:40:40;;;;;;;5.13;3.97;;;19.80;93.00;;;;;;5136426;27;20189;-77
2023/05/04 09:43:07;;;;;;;5.73;4.30;;;20.00;93.30;;;;;;5118335;27;20213;-78
2023/05/04 09:45:44;;;;;;;7.50;4.03;;;20.20;92.70;;;;;;5136690;27;20180;-77
2023/05/04 09:48:17;;;;;;;7.57;4.13;;;20.40;92.50;;;;;;5136713;27;20179;-77
2023/05/04 09:50:57;;;;;;;6.07;4.30;;;20.40;92.20;;;;;;5119033;27;20219;-76
2023/05/04 09:53:26;;;;;;;7.33;4.37;;;20.40;92.50;;;;;;5137051;27;20165;-77
2023/05/04 09:56:07;;;;;;;5.87;4.17;;;20.40;92.00;;;;;;5136272;27;20169;-76
2023/05/04 09:58:33;;;;;;;7.00;4.37;;;20.20;92.60;;;;;;5136504;27;20630;-76
2023/05/04 10:01:02;;;;;;;7.63;4.00;;;20.30;92.50;;;;;;5136374;27;20201;-77
2023/05/04 10:03:28;;;;;;;5.03;3.90;;;20.30;91.90;;;;;;5136948;27;20180;-78
2023/05/04 10:05:57;;;;;;;6.03;3.77;;;20.30;91.70;;;;;;5136277;27;20181;-77
2023/05/04 10:08:23;;;;;;;6.63;3.97;;;20.50;91.40;;;;;;5136648;27;20578;-77
2023/05/04 10:10:50;;;;;;;7.80;4.40;;;20.70;91.40;;;;;;5118052;27;20180;-77
2023/05/04 10:13:16;;;;;;;7.07;3.93;;;20.80;91.70;;;;;;5118275;27;20638;-76
2023/05/04 10:16:11;;;;;;;4.60;3.80;;;20.90;91.60;;;;;;5118508;27;20180;-77
2023/05/04 10:18:44;;;;;;;13.20;5.00;;;20.90;90.90;;;;;;5136566;27;20213;-77
2023/05/04 10:21:27;;;;;;;8.07;4.43;;;20.90;91.10;;;;;;5136737;27;20261;-77
2023/05/04 10:24:11;;;;;;;6.53;4.47;;;21.00;91.30;;;;;;5136009;27;20260;-76
2023/05/04 10:27:02;;;;;;;6.83;4.60;;;21.20;91.00;;;;;;5117446;27;20216;-77
2023/05/04 10:29:31;;;;;;;6.50;4.40;;;21.20;90.80;;;;;;5135171;27;20539;-77
2023/05/04 10:31:58;;;;;;;6.63;3.97;;;21.10;91.40;;;;;;5117756;27;20173;-77
2023/05/04 10:34:31;;;;;;;11.30;4.40;;;21.20;91.20;;;;;;5135684;27;20560;-77
2023/05/04 10:36:59;;;;;;;6.20;4.07;;;21.50;90.60;;;;;;5135597;27;20153;-77
2023/05/04 10:39:33;;;;;;;4.63;3.93;;;21.70;90.40;;;;;;5116993;27;20177;-78
2023/05/04 10:42:01;;;;;;;5.30;4.13;;;21.90;90.20;;;;;;5117016;27;20677;-77
2023/05/04 10:44:32;;;;;;;5.17;3.70;;;21.90;89.50;;;;;;5135121;27;20157;-76
2023/05/04 10:47:06;;;;;;;8.37;4.03;;;22.00;90.10;;;;;;5135202;27;20157;-77
2023/05/04 10:49:33;;;;;;;7.77;3.67;;;22.10;90.00;;;;;;5135333;27;20200;-77
2023/05/04 10:52:14;;;;;;;9.07;4.23;;;22.30;90.00;;;;;;5135677;27;20226;-76
2023/05/04 10:54:41;;;;;;;7.97;4.27;;;22.20;89.70;;;;;;5135944;27;20177;-78
2023/05/04 10:57:16;;;;;;;8.30;4.20;;;22.30;88.80;;;;;;5136464;27;20177;-77
2023/05/04 10:59:42;;;;;;;4.97;4.03;;;22.40;89.00;;;;;;5135947;27;20230;-77
2023/05/04 11:02:08;;;;;;;6.10;4.23;;;22.70;88.70;;;;;;5135559;27;20684;-77
2023/05/04 11:04:35;;;;;;;8.47;3.77;;;22.90;88.30;;;;;;5116633;27;20176;-78
2023/05/04 11:07:07;;;;;;;7.67;3.73;;;23.60;87.30;;;;;;5135007;27;20154;-76
2023/05/04 11:09:37;;;;;;;6.93;3.90;;;24.00;85.30;;;;;;5116543;27;20192;-77
2023/05/04 11:12:03;;;;;;;5.43;3.77;;;23.80;86.10;;;;;;5135006;27;20510;-77
2023/05/04 11:14:29;;;;;;;8.77;3.97;;;24.10;85.30;;;;;;5116038;27;20603;-77
2023/05/04 11:17:13;;;;;;;7.90;3.73;;;24.20;85.00;;;;;;5135182;27;20207;-77
2023/05/04 11:19:51;;;;;;;7.37;4.07;;;24.70;85.10;;;;;;5135280;27;20202;-78
2023/05/04 11:22:17;;;;;;;7.20;3.53;;;24.60;83.70;;;;;;5117582;27;20188;-78
2023/05/04 11:24:44;;;;;;;5.93;3.93;;;24.60;83.90;;;;;;5135262;27;20190;-78
2023/05/04 11:27:23;;;;;;;6.37;3.73;;;24.50;84.00;;;;;;5116862;27;20208;-78
2023/05/04 11:30:02;;;;;;;7.77;4.10;;;25.10;82.30;;;;;;5134957;27;20165;-78
2023/05/04 11:32:38;;;;;;;4.97;3.90;;;25.50;81.20;;;;;;5134874;27;20603;-78
2023/05/04 11:35:08;;;;;;;5.50;3.90;;;25.60;80.10;;;;;;5134903;27;20154;-78
2023/05/04 11:37:39;;;;;;;6.27;3.70;;;25.60;80.20;;;;;;5116163;27;20173;-78
2023/05/04 11:40:15;;;;;;;6.90;3.90;;;25.60;79.70;;;;;;5134214;27;20615;-78
2023/05/04 11:42:41;;;;;;;6.97;2.97;;;25.60;79.60;;;;;;5116367;27;20183;-78
2023/05/04 11:45:13;;;;;;;6.90;3.47;;;25.90;80.10;;;;;;5134410;27;20149;-77
2023/05/04 11:47:39;;;;;;;4.77;3.47;;;26.50;78.90;;;;;;5136200;27;20157;-77
2023/05/04 11:50:08;;;;;;;3.87;2.70;;;26.60;77.40;;;;;;5117201;27;20199;-78
2023/05/04 11:52:35;;;;;;;6.23;3.10;;;27.00;76.80;;;;;;5116325;27;20173;-77
2023/05/04 11:55:02;;;;;;;6.63;3.00;;;27.10;75.90;;;;;;5135257;27;20170;-78
2023/05/04 11:57:29;;;;;;;4.50;3.10;;;27.40;74.70;;;;;;5135047;27;20217;-78
2023/05/04 11:59:55;;;;;;;5.00;2.90;;;27.30;73.30;;;;;;5134817;27;20162;-77
2023/05/04 12:02:21;;;;;;;3.20;2.70;;;27.40;74.00;;;;;;5134712;27;20161;-79
2023/05/04 12:04:47;;;;;;;5.43;2.70;;;27.30;73.60;;;;;;5116138;28;20181;-77
2023/05/04 12:07:12;;;;;;;4.87;2.90;;;27.40;73.30;;;;;;5116086;27;20172;-80
2023/05/04 12:09:47;;;;;;;4.83;2.40;;;27.90;71.40;;;;;;5134331;27;20181;-78
2023/05/04 12:12:17;;;;;;;3.53;2.70;;;27.90;70.70;;;;;;5134795;27;20173;-77
2023/05/04 12:14:52;;;;;;;3.77;2.13;;;28.40;70.30;;;;;;5134438;27;20185;-78
2023/05/04 12:17:22;;;;;;;4.07;2.60;;;28.20;69.90;;;;;;5115931;28;20259;-79
2023/05/04 12:19:56;;;;;;;5.90;2.60;;;28.50;68.50;;;;;;5134264;28;20192;-79
2023/05/04 12:22:29;;;;;;;4.77;2.20;;;28.70;68.20;;;;;;5115998;28;20200;-78
2023/05/04 12:24:59;;;;;;;2.90;2.00;;;28.50;67.40;;;;;;5134397;28;20645;-80
2023/05/04 12:27:25;;;;;;;8.30;3.10;;;28.60;67.20;;;;;;5134074;28;20646;-77
2023/05/04 12:29:52;;;;;;;3.03;2.47;;;28.70;66.30;;;;;;5115949;28;20181;-77
2023/05/04 12:32:18;;;;;;;4.30;2.53;;;28.90;64.60;;;;;;5116400;28;20196;-78
2023/05/04 12:34:45;;;;;;;3.43;2.40;;;29.10;64.80;;;;;;5134639;28;20177;-77
2023/05/04 12:37:10;;;;;;;2.63;1.73;;;29.30;63.60;;;;;;5133799;28;20164;-77
2023/05/04 12:39:36;;;;;;;2.35;2.00;;;29.30;63.30;;;;;;5116410;28;20173;-78
2023/05/04 12:42:05;;;;;;;1.88;1.77;;;29.70;61.70;;;;;;5116210;28;20201;-79